Terminal Aerodrome Forecast
Issued by NWS

Home | Current Version | Previous Version | Text Only | Print | Product List | Glossary On
Versions: 1 2 3 4 5 6 7 8 9 10 11 12 13 14 15 16 17 18
000
FTUS46 KLOX 271720
TAFLGB
TAF
KLGB 271720Z 2718/2818 27003KT P6SM SKC
     FM272300 29009KT P6SM SCT150
     FM280500 VRB03KT P6SM SKC
     FM281100 VRB03KT 5SM BR BKN005
     FM281600 28007KT P6SM FEW007 SCT180=

USA.gov is the U.S. government's official web portal to all federal, state and local government web resources and services.